createdAt,value
2019-04-23T00:26:36.592Z,7.33
2019-04-23T00:46:48.058Z,8.23
2019-04-23T00:57:00.747Z,12.77
2019-04-23T01:07:04.555Z,9.20
2019-04-23T01:17:17.425Z,8.00
2019-04-23T01:58:07.061Z,6.70
2019-04-23T02:08:06.559Z,7.20
2019-04-23T02:38:31.840Z,6.63
2019-04-23T02:48:38.174Z,6.13
2019-04-23T02:58:43.775Z,5.70
2019-04-23T03:08:46.641Z,5.55
2019-04-23T03:19:09.690Z,6.07
2019-04-23T03:39:37.407Z,5.70
2019-04-23T04:30:02.399Z,5.67
2019-04-23T04:40:12.341Z,5.13
2019-04-23T04:50:04.834Z,6.17
2019-04-23T05:00:34.720Z,5.43
2019-04-23T05:10:38.390Z,6.97
2019-04-23T05:30:38.177Z,5.60
2019-04-23T05:40:45.581Z,4.77
2019-04-23T06:01:11.443Z,5.97
2019-04-23T06:11:08.658Z,5.67
2019-04-23T06:21:10.187Z,5.20
2019-04-23T06:31:41.042Z,4.70
2019-04-23T06:41:29.051Z,4.17
2019-04-23T06:51:42.070Z,4.95
2019-04-23T07:01:51.577Z,5.00
2019-04-23T07:11:44.320Z,4.90
2019-04-23T07:21:59.279Z,4.53
2019-04-23T07:32:00.832Z,4.08
2019-04-23T07:42:24.697Z,4.80
2019-04-23T08:02:35.960Z,5.00
2019-04-23T08:12:42.498Z,3.37
2019-04-23T08:22:49.543Z,4.47
2019-04-23T08:32:58.737Z,4.22
2019-04-23T08:43:08.535Z,4.33
2019-04-23T08:53:23.422Z,3.90
2019-04-23T09:23:42.084Z,4.44
2019-04-23T09:34:00.558Z,4.30
2019-04-23T09:44:30.899Z,4.53
2019-04-23T09:54:17.994Z,5.10
2019-04-23T10:04:07.573Z,4.45
2019-04-23T10:14:03.162Z,4.83
2019-04-23T10:24:09.585Z,6.12
2019-04-23T10:34:14.865Z,5.85
2019-04-23T10:44:21.623Z,5.58
2019-04-23T10:54:52.337Z,5.17
2019-04-23T11:55:44.880Z,6.20
2019-04-23T12:06:15.428Z,6.00
2019-04-23T12:16:20.309Z,5.30
2019-04-23T12:26:33.823Z,4.75
2019-04-23T12:36:36.957Z,5.15
2019-04-23T12:56:56.825Z,6.87
2019-04-23T13:06:50.963Z,5.10
2019-04-23T13:17:12.615Z,6.20
2019-04-23T13:27:26.111Z,5.33
2019-04-23T13:37:29.812Z,5.15
2019-04-23T13:47:38.522Z,5.80
2019-04-23T13:57:57.703Z,6.28
2019-04-23T14:18:02.906Z,4.22
2019-04-23T14:27:56.610Z,5.53
2019-04-23T14:38:19.568Z,6.55
2019-04-23T14:48:10.461Z,5.47
2019-04-23T14:58:40.084Z,5.62
2019-04-23T15:08:24.277Z,6.22
2019-04-23T15:18:45.231Z,5.90
2019-04-23T15:28:17.776Z,4.75
2019-04-23T15:39:11.703Z,5.62
2019-04-23T15:59:19.125Z,6.20
2019-04-23T16:09:06.241Z,5.15
2019-04-23T16:19:24.097Z,4.67
2019-04-23T16:39:21.565Z,4.45
2019-04-23T17:00:02.506Z,4.05
2019-04-23T17:10:00.718Z,4.28
2019-04-23T17:20:00.710Z,5.45
2019-04-23T17:30:03.381Z,4.10
2019-04-23T17:50:38.019Z,5.97
2019-04-23T18:10:56.556Z,5.70
2019-04-23T18:21:14.214Z,7.30
2019-04-23T18:31:13.020Z,9.58
2019-04-23T18:41:25.268Z,6.73
2019-04-23T18:51:35.151Z,6.13
2019-04-23T19:02:02.535Z,5.93
2019-04-23T19:22:32.710Z,6.50
2019-04-23T19:32:06.661Z,5.90
2019-04-23T19:42:17.966Z,5.20
2019-04-23T19:52:52.717Z,6.67
2019-04-23T20:03:01.688Z,6.96
2019-04-23T20:13:01.623Z,5.20
2019-04-23T20:22:52.261Z,3.52
2019-04-23T20:43:23.683Z,5.87
2019-04-23T20:53:34.908Z,5.50
2019-04-23T21:03:46.577Z,4.73
2019-04-23T21:23:56.531Z,5.45
2019-04-23T21:34:12.850Z,5.50
2019-04-23T21:54:21.197Z,5.57
2019-04-23T22:14:26.679Z,5.53
2019-04-23T22:24:27.470Z,6.70
2019-04-23T22:34:41.327Z,6.10
2019-04-23T22:54:58.988Z,5.17
2019-04-23T23:05:10.333Z,5.60
2019-04-23T23:15:12.196Z,5.73
2019-04-23T23:25:23.855Z,5.77
2019-04-23T23:45:29.833Z,5.70
2019-04-23T23:55:37.937Z,5.67
